Time;durP1;ratioP1;P1;durP2;ratioP2;P2;SDS_P1;SDS_P2;PMS_P1;PMS_P2;Temp;Humidity;BMP_temperature;BMP_pressure;BME280_temperature;BME280_humidity;BME280_pressure;Samples;Min_cycle;Max_cycle;Signal;HPM_P1;HPM_P2
2021/09/02 00:01:29;;;;;;;18.53;13.30;;;13.10;99.90;;;;;;5044919;28;20198;-73
2021/09/02 00:03:55;;;;;;;23.93;12.60;;;13.10;99.90;;;;;;5061715;28;20283;-72
2021/09/02 00:06:20;;;;;;;22.63;13.83;;;13.00;99.90;;;;;;5061909;28;20166;-72
2021/09/02 00:08:46;;;;;;;21.97;12.37;;;13.10;99.90;;;;;;5059359;28;20198;-73
2021/09/02 00:11:11;;;;;;;19.50;13.20;;;13.10;99.90;;;;;;5058993;28;20212;-72
2021/09/02 00:13:37;;;;;;;19.30;13.37;;;13.10;99.90;;;;;;5058888;28;20158;-72
2021/09/02 00:16:03;;;;;;;19.80;13.13;;;13.00;99.90;;;;;;5058817;28;20249;-73
2021/09/02 00:18:29;;;;;;;21.73;12.63;;;13.10;99.90;;;;;;5042591;28;20174;-73
2021/09/02 00:20:54;;;;;;;19.83;13.53;;;13.10;99.90;;;;;;5059909;28;20186;-72
2021/09/02 00:23:20;;;;;;;19.27;12.60;;;13.10;99.90;;;;;;5044161;28;20422;-72
2021/09/02 00:25:45;;;;;;;16.80;12.37;;;13.10;99.90;;;;;;5061867;28;20174;-73
2021/09/02 00:28:11;;;;;;;18.73;12.07;;;13.10;99.90;;;;;;5062068;28;20663;-73
2021/09/02 00:30:36;;;;;;;18.27;11.70;;;13.00;99.90;;;;;;5061598;28;20273;-72
2021/09/02 00:33:02;;;;;;;15.10;10.90;;;13.00;99.90;;;;;;5063037;28;20195;-73
2021/09/02 00:35:28;;;;;;;17.77;12.23;;;13.00;99.90;;;;;;5044229;28;20665;-72
2021/09/02 00:37:53;;;;;;;16.00;11.17;;;13.00;99.90;;;;;;5062500;28;20174;-72
2021/09/02 00:40:19;;;;;;;16.37;12.87;;;12.90;99.90;;;;;;5042645;28;20434;-72
2021/09/02 00:42:44;;;;;;;15.57;11.70;;;12.90;99.90;;;;;;5043384;28;20182;-72
2021/09/02 00:45:10;;;;;;;20.20;11.77;;;12.90;99.90;;;;;;5060670;28;20178;-72
2021/09/02 00:47:37;;;;;;;17.17;11.40;;;12.90;99.90;;;;;;5058894;28;20263;-72
2021/09/02 00:50:03;;;;;;;14.63;10.87;;;12.90;99.90;;;;;;5040435;28;20436;-72
2021/09/02 00:52:31;;;;;;;13.40;10.90;;;12.90;99.90;;;;;;5061332;28;20405;-72
2021/09/02 00:55:00;;;;;;;16.03;11.97;;;12.90;99.90;;;;;;5059668;28;20421;-72
2021/09/02 00:57:28;;;;;;;14.87;11.03;;;12.80;99.90;;;;;;5040727;28;20425;-72
2021/09/02 01:00:00;;;;;;;17.40;12.30;;;12.80;99.90;;;;;;5057705;28;20764;-72
2021/09/02 01:02:28;;;;;;;15.03;11.50;;;12.80;99.90;;;;;;5057731;28;20417;-72
2021/09/02 01:04:54;;;;;;;20.80;11.97;;;12.80;99.90;;;;;;5040031;28;20424;-72
2021/09/02 01:07:22;;;;;;;16.00;11.47;;;12.80;99.90;;;;;;5057587;28;20460;-72
2021/09/02 01:09:48;;;;;;;16.40;11.70;;;12.70;99.90;;;;;;5058055;28;20405;-73
2021/09/02 01:12:35;;;;;;;21.10;13.07;;;12.70;99.90;;;;;;5060511;28;21011;-72
2021/09/02 01:15:04;;;;;;;19.17;12.70;;;12.70;99.90;;;;;;5061425;28;20170;-73
2021/09/02 01:17:30;;;;;;;16.93;12.47;;;12.70;99.90;;;;;;5060985;28;20431;-72
2021/09/02 01:19:57;;;;;;;16.20;11.57;;;12.70;99.90;;;;;;5058745;28;20764;-72
2021/09/02 01:22:30;;;;;;;16.00;11.20;;;12.70;99.90;;;;;;5062895;28;20416;-73
2021/09/02 01:25:00;;;;;;;13.13;11.33;;;12.70;99.90;;;;;;5067091;28;20436;-73
2021/09/02 01:27:29;;;;;;;15.30;11.07;;;12.70;99.90;;;;;;5067225;28;20471;-74
2021/09/02 01:30:05;;;;;;;15.07;10.67;;;12.70;99.90;;;;;;5049088;28;20905;-73
2021/09/02 01:32:32;;;;;;;15.30;10.80;;;12.60;99.90;;;;;;5067343;28;20458;-73
2021/09/02 01:34:58;;;;;;;17.97;10.97;;;12.60;99.90;;;;;;5050253;28;20417;-73
2021/09/02 01:37:25;;;;;;;16.53;11.40;;;12.60;99.90;;;;;;5069896;28;20421;-73
2021/09/02 01:39:52;;;;;;;14.13;10.53;;;12.60;99.90;;;;;;5064502;28;20499;-73
2021/09/02 01:42:18;;;;;;;18.67;11.17;;;12.60;99.90;;;;;;5060543;28;20416;-73
2021/09/02 01:44:44;;;;;;;15.50;10.90;;;12.60;99.90;;;;;;5060736;28;20412;-73
2021/09/02 01:47:24;;;;;;;14.80;10.53;;;12.60;99.90;;;;;;5059363;28;20442;-73
2021/09/02 01:49:50;;;;;;;14.23;9.60;;;12.50;99.90;;;;;;5039419;28;20182;-73
2021/09/02 01:52:17;;;;;;;14.00;10.80;;;12.50;99.90;;;;;;5058530;28;20420;-73
2021/09/02 01:54:43;;;;;;;14.47;10.50;;;12.50;99.90;;;;;;5056813;28;20451;-73
2021/09/02 01:57:08;;;;;;;14.70;10.30;;;12.50;99.90;;;;;;5057342;28;20405;-72
2021/09/02 01:59:34;;;;;;;13.10;10.13;;;12.40;99.90;;;;;;5056818;28;20176;-73
2021/09/02 02:02:01;;;;;;;14.20;10.50;;;12.50;99.90;;;;;;5056499;28;20218;-73
2021/09/02 02:04:26;;;;;;;18.20;11.00;;;12.50;99.90;;;;;;5056612;28;20846;-73
2021/09/02 02:06:52;;;;;;;16.20;10.90;;;12.40;99.90;;;;;;5056588;28;20174;-74
2021/09/02 02:09:17;;;;;;;16.20;9.93;;;12.40;99.90;;;;;;5055736;28;20202;-72
2021/09/02 02:11:43;;;;;;;16.90;10.47;;;12.40;99.90;;;;;;5055725;28;20640;-73
2021/09/02 02:14:08;;;;;;;13.97;10.80;;;12.40;99.90;;;;;;5056453;28;20166;-73
2021/09/02 02:16:34;;;;;;;16.60;10.47;;;12.30;99.90;;;;;;5055582;28;20170;-73
2021/09/02 02:18:59;;;;;;;14.70;10.40;;;12.30;99.90;;;;;;5056732;28;20220;-73
2021/09/02 02:21:25;;;;;;;14.03;10.23;;;12.30;99.90;;;;;;5056088;28;20284;-73
2021/09/02 02:23:50;;;;;;;17.70;10.37;;;12.30;99.90;;;;;;5055419;28;20178;-73
2021/09/02 02:26:16;;;;;;;14.13;10.43;;;12.30;99.90;;;;;;5054381;28;20174;-73
2021/09/02 02:28:41;;;;;;;15.83;10.23;;;12.30;99.90;;;;;;5055377;28;20209;-75
2021/09/02 02:31:07;;;;;;;16.00;10.50;;;12.30;99.90;;;;;;5056709;28;20197;-73
2021/09/02 02:33:32;;;;;;;12.10;9.63;;;12.30;99.90;;;;;;5038472;28;20231;-73
2021/09/02 02:35:58;;;;;;;13.30;9.67;;;12.30;99.90;;;;;;5056457;28;20561;-73
2021/09/02 02:38:23;;;;;;;12.70;10.07;;;12.30;99.90;;;;;;5037689;28;20178;-72
2021/09/02 02:40:49;;;;;;;12.50;9.43;;;12.30;99.90;;;;;;5056326;28;20285;-73
2021/09/02 02:43:15;;;;;;;14.00;9.90;;;12.30;99.90;;;;;;5055526;28;20170;-72
2021/09/02 02:45:40;;;;;;;12.27;9.67;;;12.30;99.90;;;;;;5055631;28;20179;-73
2021/09/02 02:48:06;;;;;;;13.83;10.20;;;12.30;99.90;;;;;;5037814;28;20678;-72
2021/09/02 02:50:33;;;;;;;14.57;9.47;;;12.30;99.90;;;;;;5055401;28;20551;-74
2021/09/02 02:52:59;;;;;;;12.67;10.23;;;12.30;99.90;;;;;;5055928;28;20170;-73
2021/09/02 02:55:25;;;;;;;16.13;10.17;;;12.30;99.90;;;;;;5056441;28;20546;-73
2021/09/02 02:57:53;;;;;;;14.20;9.67;;;12.20;99.90;;;;;;5056129;28;20464;-73
2021/09/02 03:00:19;;;;;;;17.70;9.43;;;12.20;99.90;;;;;;5055967;28;20441;-72
2021/09/02 03:02:45;;;;;;;12.23;9.10;;;12.20;99.90;;;;;;5057104;28;20404;-73
2021/09/02 03:05:10;;;;;;;15.10;10.70;;;12.20;99.90;;;;;;5058468;28;20416;-73
2021/09/02 03:07:36;;;;;;;15.77;11.07;;;12.20;99.90;;;;;;5057148;28;20868;-73
2021/09/02 03:10:07;;;;;;;13.33;10.30;;;12.10;99.90;;;;;;5058021;28;20251;-73
2021/09/02 03:12:34;;;;;;;14.80;10.90;;;12.10;99.90;;;;;;5060913;28;20517;-73
2021/09/02 03:15:00;;;;;;;13.07;10.17;;;12.10;99.90;;;;;;5060729;28;20539;-73
2021/09/02 03:17:26;;;;;;;15.93;9.33;;;12.10;99.90;;;;;;5058962;28;20443;-73
2021/09/02 03:19:51;;;;;;;12.13;10.27;;;12.10;99.90;;;;;;5059836;28;20409;-73
2021/09/02 03:22:17;;;;;;;11.57;9.27;;;12.00;99.90;;;;;;5059750;28;20244;-72
2021/09/02 03:24:42;;;;;;;15.67;9.50;;;12.00;99.90;;;;;;5059895;28;20178;-72
2021/09/02 03:27:09;;;;;;;11.10;8.50;;;12.00;99.90;;;;;;5059906;28;20178;-73
2021/09/02 03:29:35;;;;;;;15.40;10.10;;;12.00;99.90;;;;;;5059734;28;20642;-73
2021/09/02 03:32:01;;;;;;;20.30;9.97;;;12.10;99.90;;;;;;5058368;28;20432;-72
2021/09/02 03:34:26;;;;;;;13.60;9.43;;;12.00;99.90;;;;;;5058464;28;20182;-72
2021/09/02 03:36:52;;;;;;;11.50;8.70;;;12.00;99.90;;;;;;5058249;28;20166;-72
2021/09/02 03:39:17;;;;;;;11.20;8.90;;;12.00;99.90;;;;;;5058245;28;20174;-72
2021/09/02 03:41:44;;;;;;;11.17;9.37;;;12.00;99.90;;;;;;5058541;28;20215;-73
2021/09/02 03:44:10;;;;;;;14.73;9.70;;;12.00;99.90;;;;;;5057966;28;20178;-73
2021/09/02 03:46:36;;;;;;;11.07;8.63;;;12.00;99.90;;;;;;5058416;28;20408;-73
2021/09/02 03:49:02;;;;;;;11.90;9.57;;;12.00;99.90;;;;;;5057361;28;20468;-73
2021/09/02 03:51:28;;;;;;;15.73;9.20;;;12.00;99.90;;;;;;5058100;28;20210;-73
2021/09/02 03:53:53;;;;;;;12.60;8.40;;;12.00;99.90;;;;;;5058531;28;20425;-73
2021/09/02 03:56:19;;;;;;;12.37;8.87;;;12.00;99.90;;;;;;5040233;28;20642;-72
2021/09/02 03:58:44;;;;;;;12.03;8.80;;;12.00;99.90;;;;;;5057283;28;20260;-72
2021/09/02 04:01:10;;;;;;;12.73;9.50;;;11.90;99.90;;;;;;5057642;28;20194;-72
2021/09/02 04:03:35;;;;;;;13.00;8.60;;;12.00;99.90;;;;;;5039509;28;20178;-73
2021/09/02 04:06:01;;;;;;;14.00;10.07;;;12.00;99.90;;;;;;5057607;28;20194;-73
2021/09/02 04:08:26;;;;;;;12.37;8.20;;;11.90;99.90;;;;;;5057438;28;20194;-72
2021/09/02 04:10:52;;;;;;;12.00;8.70;;;11.90;99.90;;;;;;5058258;28;20186;-73
2021/09/02 04:13:18;;;;;;;12.80;9.00;;;12.00;99.90;;;;;;5058384;28;20187;-73
2021/09/02 04:15:43;;;;;;;10.20;8.27;;;12.00;99.90;;;;;;5057427;28;20193;-73
2021/09/02 04:18:09;;;;;;;13.10;8.47;;;12.00;99.90;;;;;;5057108;28;20178;-71
2021/09/02 04:20:34;;;;;;;16.97;10.03;;;12.00;99.90;;;;;;5056045;28;20608;-72
2021/09/02 04:23:00;;;;;;;11.10;8.13;;;11.90;99.90;;;;;;5058436;28;20565;-72
2021/09/02 04:25:25;;;;;;;15.90;8.67;;;11.90;99.90;;;;;;5058084;28;20182;-72
2021/09/02 04:27:51;;;;;;;12.30;8.80;;;12.00;99.90;;;;;;5058424;28;20214;-72
2021/09/02 04:30:17;;;;;;;14.23;9.50;;;11.90;99.90;;;;;;5057216;28;20187;-72
2021/09/02 04:32:43;;;;;;;13.27;9.70;;;12.00;99.90;;;;;;5058966;28;20178;-73
2021/09/02 04:35:10;;;;;;;13.03;9.47;;;11.90;99.90;;;;;;5044883;28;20183;-72
2021/09/02 04:37:40;;;;;;;12.10;9.20;;;12.00;99.90;;;;;;5050584;28;20448;-73
2021/09/02 04:40:07;;;;;;;14.07;9.60;;;11.90;99.90;;;;;;5042637;28;20548;-72
2021/09/02 04:42:34;;;;;;;15.40;9.47;;;11.90;99.90;;;;;;5042523;28;20428;-72
2021/09/02 04:45:00;;;;;;;15.43;9.47;;;11.90;99.90;;;;;;5036113;28;20763;-72
2021/09/02 04:47:27;;;;;;;11.43;8.40;;;12.00;99.90;;;;;;5042086;28;20544;-72
2021/09/02 04:49:53;;;;;;;19.00;9.50;;;11.90;99.90;;;;;;5044178;28;20429;-72
2021/09/02 04:52:19;;;;;;;12.17;9.10;;;11.90;99.90;;;;;;5035315;28;20413;-72
2021/09/02 04:54:44;;;;;;;15.87;9.73;;;12.00;99.90;;;;;;5042240;28;20417;-73
2021/09/02 04:57:10;;;;;;;13.23;9.37;;;11.90;99.90;;;;;;5053519;28;20196;-72
2021/09/02 04:59:35;;;;;;;16.40;9.80;;;11.90;99.90;;;;;;5063082;28;20239;-72
2021/09/02 05:02:01;;;;;;;12.53;8.90;;;11.90;99.90;;;;;;5040860;28;20202;-71
2021/09/02 05:04:27;;;;;;;15.13;9.23;;;11.90;99.90;;;;;;5052480;28;20178;-72
2021/09/02 05:06:52;;;;;;;15.40;9.60;;;11.90;99.90;;;;;;5051013;28;20202;-73
2021/09/02 05:09:19;;;;;;;14.30;10.47;;;12.00;99.90;;;;;;5046863;28;20269;-73
2021/09/02 05:11:44;;;;;;;14.23;10.00;;;12.00;99.90;;;;;;5031788;28;20275;-73
2021/09/02 05:14:10;;;;;;;13.87;9.77;;;11.90;99.90;;;;;;5031216;28;20425;-72
2021/09/02 05:16:36;;;;;;;14.70;8.87;;;12.00;99.90;;;;;;5050029;28;20251;-72
2021/09/02 05:19:02;;;;;;;12.77;8.70;;;12.00;99.90;;;;;;5051364;28;20458;-75
2021/09/02 05:21:27;;;;;;;12.70;8.80;;;12.00;99.90;;;;;;5050745;28;20197;-72
2021/09/02 05:23:53;;;;;;;13.93;9.73;;;12.00;99.90;;;;;;5051142;28;20162;-72
2021/09/02 05:26:18;;;;;;;13.90;9.70;;;12.10;99.90;;;;;;5034359;28;20685;-73
2021/09/02 05:28:44;;;;;;;19.10;10.50;;;12.10;99.90;;;;;;5034023;28;20583;-73
2021/09/02 05:31:10;;;;;;;12.00;9.03;;;12.10;99.90;;;;;;5051873;28;20186;-72
2021/09/02 05:33:35;;;;;;;16.20;10.30;;;12.10;99.90;;;;;;5051235;28;20611;-73
2021/09/02 05:36:01;;;;;;;15.83;11.43;;;12.10;99.90;;;;;;5035685;28;20579;-73
2021/09/02 05:38:27;;;;;;;12.77;9.13;;;12.10;99.90;;;;;;5035737;28;20514;-72
2021/09/02 05:40:52;;;;;;;12.80;9.00;;;12.10;99.90;;;;;;5054816;28;20190;-73
2021/09/02 05:43:19;;;;;;;12.47;8.70;;;12.20;99.90;;;;;;5036757;28;20174;-73
2021/09/02 05:45:45;;;;;;;15.93;9.57;;;12.20;99.90;;;;;;5054705;28;20174;-74
2021/09/02 05:48:10;;;;;;;13.13;9.63;;;12.30;99.90;;;;;;5054986;28;20444;-72
2021/09/02 05:50:36;;;;;;;16.27;11.23;;;12.30;99.90;;;;;;5053929;28;20407;-72
2021/09/02 05:53:02;;;;;;;12.00;9.67;;;12.30;99.90;;;;;;5054386;28;20245;-72
2021/09/02 05:55:27;;;;;;;11.10;9.20;;;12.30;99.90;;;;;;5054349;28;20249;-74
2021/09/02 05:57:53;;;;;;;15.27;9.60;;;12.30;99.90;;;;;;5053769;28;20183;-73
2021/09/02 06:00:19;;;;;;;16.07;11.00;;;12.40;99.90;;;;;;5054088;28;20291;-73
2021/09/02 06:02:45;;;;;;;16.30;10.80;;;12.40;99.90;;;;;;5054362;28;20174;-72
2021/09/02 06:05:10;;;;;;;14.10;10.97;;;12.40;99.90;;;;;;5036240;28;20420;-72
2021/09/02 06:07:36;;;;;;;16.77;11.30;;;12.50;99.90;;;;;;5053780;28;20292;-72
2021/09/02 06:10:03;;;;;;;19.00;10.87;;;12.50;99.90;;;;;;5054027;28;20212;-73
2021/09/02 06:12:28;;;;;;;15.93;11.80;;;12.50;99.90;;;;;;5036031;28;20337;-72
2021/09/02 06:14:54;;;;;;;14.67;10.43;;;12.50;99.90;;;;;;5036084;28;20499;-73
2021/09/02 06:17:20;;;;;;;19.17;12.40;;;12.60;99.90;;;;;;5034674;28;20201;-72
2021/09/02 06:19:46;;;;;;;17.03;11.70;;;12.60;99.90;;;;;;5053577;28;20166;-72
2021/09/02 06:22:11;;;;;;;22.13;12.30;;;12.60;99.90;;;;;;5036248;28;20260;-73
2021/09/02 06:24:37;;;;;;;17.90;12.57;;;12.60;99.90;;;;;;5054183;28;20789;-72
2021/09/02 06:27:03;;;;;;;20.80;11.27;;;12.60;99.90;;;;;;5036492;28;20647;-73
2021/09/02 06:29:28;;;;;;;16.00;11.60;;;12.70;99.90;;;;;;5053745;28;20415;-73
2021/09/02 06:31:55;;;;;;;15.10;11.37;;;12.70;99.90;;;;;;5053447;28;20279;-73
2021/09/02 06:34:20;;;;;;;25.43;12.30;;;12.70;99.90;;;;;;5053802;28;20181;-73
2021/09/02 06:36:46;;;;;;;19.00;11.00;;;12.80;99.90;;;;;;5036279;28;20413;-73
2021/09/02 06:39:11;;;;;;;16.83;11.87;;;12.80;99.90;;;;;;5054034;28;20690;-73
2021/09/02 06:41:37;;;;;;;13.77;10.40;;;12.90;99.90;;;;;;5055281;28;20244;-74
2021/09/02 06:44:03;;;;;;;14.43;11.00;;;13.00;99.90;;;;;;5058085;28;20239;-73
2021/09/02 06:46:28;;;;;;;18.23;12.73;;;13.10;99.90;;;;;;5058554;28;20469;-73
2021/09/02 06:48:54;;;;;;;18.63;11.60;;;13.20;99.90;;;;;;5058746;28;20205;-74
2021/09/02 06:51:21;;;;;;;20.43;12.07;;;13.30;99.90;;;;;;5058815;28;20190;-74
2021/09/02 06:53:46;;;;;;;16.17;12.53;;;13.40;99.90;;;;;;5044244;28;20543;-73
2021/09/02 06:56:12;;;;;;;15.90;12.27;;;13.40;99.90;;;;;;5054944;28;20468;-74
2021/09/02 06:58:38;;;;;;;18.20;12.13;;;13.50;99.90;;;;;;5054669;28;20177;-73
2021/09/02 07:01:03;;;;;;;16.40;11.77;;;13.50;99.90;;;;;;5054253;28;20234;-71
2021/09/02 07:03:29;;;;;;;18.10;13.00;;;13.60;99.90;;;;;;5054213;28;20650;-73
2021/09/02 07:05:54;;;;;;;18.47;12.00;;;13.60;99.90;;;;;;5054571;28;20178;-73
2021/09/02 07:08:20;;;;;;;15.83;12.20;;;13.70;99.90;;;;;;5053979;28;20198;-73
2021/09/02 07:10:45;;;;;;;23.60;15.10;;;13.80;99.90;;;;;;5054065;28;20187;-73
2021/09/02 07:13:11;;;;;;;19.90;12.77;;;13.90;99.90;;;;;;5054740;28;20224;-73
2021/09/02 07:15:37;;;;;;;20.90;13.00;;;14.00;99.90;;;;;;5049133;28;20229;-72
2021/09/02 07:18:03;;;;;;;17.30;12.13;;;14.10;99.90;;;;;;5051350;28;20197;-75
2021/09/02 07:20:30;;;;;;;18.43;11.83;;;14.20;99.90;;;;;;5051427;28;20208;-72
2021/09/02 07:22:55;;;;;;;14.60;11.47;;;14.20;99.90;;;;;;5053069;28;20666;-74
2021/09/02 07:25:21;;;;;;;15.73;12.03;;;14.30;99.90;;;;;;5030988;28;20461;-75
2021/09/02 07:27:47;;;;;;;20.43;12.00;;;14.40;99.90;;;;;;5026538;28;20224;-74
2021/09/02 07:30:13;;;;;;;16.47;12.23;;;14.50;99.90;;;;;;5036109;28;21118;-72
2021/09/02 07:32:39;;;;;;;18.30;12.77;;;14.60;99.90;;;;;;5034125;28;20182;-73
2021/09/02 07:35:06;;;;;;;17.90;12.93;;;14.70;99.90;;;;;;5046171;28;20186;-74
2021/09/02 07:37:32;;;;;;;18.23;12.03;;;14.80;99.90;;;;;;5051072;28;20197;-75
2021/09/02 07:39:57;;;;;;;17.63;13.70;;;15.00;99.90;;;;;;5026099;28;21037;-74
2021/09/02 07:42:23;;;;;;;20.03;12.83;;;15.10;99.90;;;;;;5050296;28;20443;-74
2021/09/02 07:44:49;;;;;;;21.07;13.53;;;15.20;99.90;;;;;;5054394;28;20675;-73
2021/09/02 07:47:15;;;;;;;16.43;12.70;;;15.40;99.90;;;;;;5054061;28;20272;-74
2021/09/02 07:49:41;;;;;;;21.27;12.57;;;15.60;99.90;;;;;;5054283;28;20901;-73
2021/09/02 07:52:09;;;;;;;14.70;12.30;;;15.70;99.90;;;;;;5057193;28;20432;-73
2021/09/02 07:54:35;;;;;;;18.60;11.90;;;15.80;99.90;;;;;;5053459;28;20437;-72
2021/09/02 07:57:00;;;;;;;18.20;12.33;;;16.00;99.90;;;;;;5053615;28;20818;-73
2021/09/02 07:59:26;;;;;;;16.47;12.07;;;16.10;99.90;;;;;;5052830;28;20459;-73
2021/09/02 08:01:52;;;;;;;13.67;11.83;;;16.20;99.90;;;;;;5052784;28;20217;-73
2021/09/02 08:04:17;;;;;;;18.50;12.00;;;16.30;99.90;;;;;;5052529;28;20170;-75
2021/09/02 08:06:46;;;;;;;17.10;12.63;;;16.40;99.90;;;;;;5048138;28;20182;-74
2021/09/02 08:09:12;;;;;;;14.87;11.60;;;16.40;99.90;;;;;;5051747;28;20289;-73
2021/09/02 08:11:40;;;;;;;16.43;11.60;;;16.50;99.90;;;;;;5052600;28;20576;-73
2021/09/02 08:14:05;;;;;;;12.60;10.97;;;16.60;99.90;;;;;;5052479;28;20190;-73
2021/09/02 08:16:31;;;;;;;16.20;12.10;;;16.70;99.90;;;;;;5034252;28;20482;-73
2021/09/02 08:18:58;;;;;;;18.13;11.90;;;16.70;99.90;;;;;;5034721;28;20186;-74
2021/09/02 08:21:24;;;;;;;15.57;10.10;;;16.80;99.90;;;;;;5052644;28;20889;-75
2021/09/02 08:23:50;;;;;;;20.60;13.43;;;16.80;99.90;;;;;;5036160;28;20498;-74
2021/09/02 08:26:16;;;;;;;15.97;11.30;;;16.90;99.90;;;;;;5056344;28;20814;-74
2021/09/02 08:28:42;;;;;;;16.50;11.90;;;17.00;99.90;;;;;;5037391;28;20561;-73
2021/09/02 08:31:08;;;;;;;16.10;12.10;;;17.10;99.90;;;;;;5035224;28;20415;-75
2021/09/02 08:33:34;;;;;;;14.00;11.50;;;17.20;99.90;;;;;;5052937;28;20539;-73
2021/09/02 08:35:59;;;;;;;15.17;11.30;;;17.30;99.90;;;;;;5035169;28;20232;-74
2021/09/02 08:38:25;;;;;;;18.35;12.60;;;17.40;99.90;;;;;;5050873;28;21023;-74
2021/09/02 08:40:51;;;;;;;16.37;10.93;;;17.40;99.90;;;;;;5034808;28;20229;-73
2021/09/02 08:43:17;;;;;;;12.60;10.47;;;17.40;99.90;;;;;;5052301;28;20427;-73
2021/09/02 08:45:43;;;;;;;14.30;10.60;;;17.50;99.90;;;;;;5052104;28;20174;-74
2021/09/02 08:48:08;;;;;;;12.03;10.80;;;17.60;99.90;;;;;;5044351;28;20492;-74
2021/09/02 08:50:37;;;;;;;18.10;10.40;;;17.70;99.90;;;;;;5034861;28;20213;-73
2021/09/02 08:53:04;;;;;;;14.73;10.27;;;17.80;99.90;;;;;;5036523;28;20706;-74
2021/09/02 08:55:30;;;;;;;15.40;10.17;;;17.80;99.90;;;;;;5032014;28;20444;-74
2021/09/02 08:57:57;;;;;;;11.80;9.10;;;17.90;99.90;;;;;;5034468;28;20417;-74
2021/09/02 09:00:25;;;;;;;10.97;8.40;;;18.00;99.90;;;;;;5030407;28;20190;-73
2021/09/02 09:03:03;;;;;;;14.47;9.70;;;18.10;99.90;;;;;;5041133;28;20447;-74
2021/09/02 09:05:33;;;;;;;11.17;9.40;;;18.20;99.90;;;;;;5046211;28;20486;-74
2021/09/02 09:07:59;;;;;;;12.80;9.60;;;18.30;99.90;;;;;;5051346;28;20774;-74
2021/09/02 09:10:28;;;;;;;11.27;9.30;;;18.50;99.90;;;;;;5048837;28;20854;-73
2021/09/02 09:12:59;;;;;;;13.77;9.47;;;18.60;99.90;;;;;;5038537;28;20469;-76
2021/09/02 09:15:36;;;;;;;16.20;11.23;;;18.70;99.90;;;;;;5046085;28;20412;-73
2021/09/02 09:18:21;;;;;;;17.27;10.70;;;18.70;99.90;;;;;;5033892;28;20440;-74
2021/09/02 09:21:17;;;;;;;15.10;12.50;;;18.70;99.90;;;;;;5035750;28;20449;-74
2021/09/02 09:24:02;;;;;;;10.93;9.43;;;18.80;99.90;;;;;;5040566;28;20463;-72
2021/09/02 09:26:29;;;;;;;12.00;9.27;;;18.80;99.90;;;;;;5053873;28;20972;-74
2021/09/02 09:29:03;;;;;;;13.47;10.10;;;18.80;99.90;;;;;;5037972;28;20456;-74
2021/09/02 09:31:36;;;;;;;13.70;9.00;;;18.80;99.90;;;;;;5055832;28;20435;-74
2021/09/02 09:34:04;;;;;;;13.40;9.70;;;18.80;99.90;;;;;;5054701;28;20769;-74
2021/09/02 09:36:34;;;;;;;12.87;9.90;;;18.90;99.90;;;;;;5055298;28;20436;-73
2021/09/02 09:39:17;;;;;;;12.27;9.00;;;18.90;99.90;;;;;;5036642;28;20889;-72
2021/09/02 09:41:46;;;;;;;14.33;9.80;;;19.10;99.90;;;;;;5055415;28;20753;-74
2021/09/02 09:44:14;;;;;;;11.30;9.63;;;19.10;99.90;;;;;;5055760;28;20801;-73
2021/09/02 09:46:40;;;;;;;12.20;9.70;;;18.90;99.90;;;;;;5038648;28;20945;-73
2021/09/02 09:49:05;;;;;;;11.40;9.00;;;18.90;99.90;;;;;;5057267;28;20495;-75
2021/09/02 09:51:31;;;;;;;10.90;9.00;;;18.90;99.90;;;;;;5041312;28;20285;-74
2021/09/02 09:53:56;;;;;;;10.90;8.90;;;18.80;99.90;;;;;;5058719;28;20600;-73
2021/09/02 09:56:24;;;;;;;13.53;9.90;;;18.80;99.90;;;;;;5059020;28;20178;-74
2021/09/02 09:58:52;;;;;;;10.17;9.07;;;18.70;99.90;;;;;;5058298;28;20190;-74
2021/09/02 10:01:18;;;;;;;12.03;9.50;;;18.80;99.90;;;;;;5041293;28;20436;-73
2021/09/02 10:03:50;;;;;;;15.30;9.20;;;18.90;99.90;;;;;;5059150;28;20412;-73
2021/09/02 10:06:18;;;;;;;10.43;9.13;;;19.00;99.90;;;;;;5059102;28;20212;-74
2021/09/02 10:08:45;;;;;;;12.87;9.10;;;19.10;99.90;;;;;;5040236;28;20461;-74
2021/09/02 10:11:13;;;;;;;10.97;9.80;;;19.20;99.90;;;;;;5058524;28;20435;-74
2021/09/02 10:13:40;;;;;;;11.27;8.97;;;19.30;99.90;;;;;;5057991;28;20388;-73
2021/09/02 10:16:06;;;;;;;10.40;9.30;;;19.30;99.90;;;;;;5058642;28;20921;-75
2021/09/02 10:18:37;;;;;;;9.80;8.80;;;19.30;99.90;;;;;;5058971;28;20413;-74
2021/09/02 10:21:07;;;;;;;11.53;8.70;;;19.40;99.90;;;;;;5058704;28;20437;-74
2021/09/02 10:23:33;;;;;;;8.83;7.93;;;19.50;99.90;;;;;;5041205;28;20448;-74
2021/09/02 10:25:58;;;;;;;9.70;8.40;;;19.50;99.90;;;;;;5041433;28;20480;-73
2021/09/02 10:28:32;;;;;;;9.10;8.20;;;19.60;99.90;;;;;;5059119;28;20210;-73
2021/09/02 10:31:03;;;;;;;10.50;7.93;;;19.70;99.90;;;;;;5058285;28;20194;-73
2021/09/02 10:33:37;;;;;;;9.50;8.47;;;19.80;99.90;;;;;;5058762;28;20417;-75
2021/09/02 10:36:28;;;;;;;11.15;9.10;;;19.90;99.90;;;;;;5037293;28;20439;-75
2021/09/02 10:38:56;;;;;;;8.83;8.00;;;19.90;99.90;;;;;;5036912;28;20191;-75
2021/09/02 10:41:36;;;;;;;11.10;8.87;;;19.90;99.90;;;;;;5045021;28;20797;-75
2021/09/02 10:44:10;;;;;;;12.27;9.07;;;19.90;99.90;;;;;;5044675;28;20435;-74
2021/09/02 10:46:43;;;;;;;11.67;8.30;;;19.90;99.90;;;;;;5053651;28;20432;-74
2021/09/02 10:49:27;;;;;;;9.70;7.78;;;20.00;99.90;;;;;;5040134;28;20518;-74
2021/09/02 10:52:02;;;;;;;10.90;8.17;;;20.10;99.90;;;;;;5044698;28;20201;-73
2021/09/02 10:54:30;;;;;;;8.87;7.57;;;20.30;99.90;;;;;;5044214;28;20420;-73
2021/09/02 10:57:06;;;;;;;10.67;8.40;;;20.30;99.90;;;;;;5053716;28;20412;-74
2021/09/02 10:59:40;;;;;;;11.07;8.85;;;20.40;99.90;;;;;;5053331;28;20457;-74
2021/09/02 11:02:28;;;;;;;10.23;8.90;;;20.50;99.90;;;;;;5054285;28;20228;-74
2021/09/02 11:05:05;;;;;;;10.77;9.43;;;20.50;99.90;;;;;;5025720;28;20428;-73
2021/09/02 11:07:43;;;;;;;10.87;9.77;;;20.40;99.90;;;;;;5036237;28;20413;-73
2021/09/02 11:10:20;;;;;;;11.20;9.23;;;20.30;99.90;;;;;;5035328;28;20486;-74
2021/09/02 11:12:48;;;;;;;9.20;7.80;;;20.20;99.90;;;;;;5054426;28;20431;-73
2021/09/02 11:15:22;;;;;;;10.37;9.10;;;20.30;99.90;;;;;;5036848;28;20460;-75
2021/09/02 11:17:53;;;;;;;11.00;9.40;;;20.20;99.90;;;;;;5053266;28;20441;-75
2021/09/02 11:20:24;;;;;;;13.73;8.60;;;20.20;99.90;;;;;;5053282;28;20464;-74
2021/09/02 11:23:05;;;;;;;10.00;8.97;;;20.20;99.90;;;;;;5023306;28;20498;-74
2021/09/02 11:25:45;;;;;;;10.20;9.10;;;20.30;99.90;;;;;;5048760;28;20471;-74
2021/09/02 11:28:11;;;;;;;12.90;9.70;;;20.30;99.90;;;;;;5044283;28;20825;-74
2021/09/02 11:30:37;;;;;;;11.93;8.63;;;20.30;99.90;;;;;;5033427;28;20433;-75
2021/09/02 11:33:06;;;;;;;8.90;8.03;;;20.40;99.90;;;;;;5033993;28;20447;-73
2021/09/02 11:35:32;;;;;;;12.83;10.17;;;20.50;99.90;;;;;;5038546;28;20194;-72
2021/09/02 11:37:58;;;;;;;10.30;8.27;;;20.60;99.90;;;;;;5035330;28;20941;-72
2021/09/02 11:40:35;;;;;;;9.07;8.07;;;20.60;99.90;;;;;;5047043;28;20524;-72
2021/09/02 11:43:01;;;;;;;9.80;7.73;;;20.70;99.90;;;;;;5015458;28;20179;-73
2021/09/02 11:45:30;;;;;;;12.67;11.57;;;20.60;99.90;;;;;;5016227;28;20449;-71
2021/09/02 11:48:04;;;;;;;14.77;10.70;;;20.70;99.90;;;;;;5048593;28;20460;-74
2021/09/02 11:50:31;;;;;;;10.60;9.60;;;20.80;99.90;;;;;;5034948;28;20478;-73
2021/09/02 11:52:56;;;;;;;9.67;8.13;;;21.00;99.90;;;;;;5045262;28;20828;-74
2021/09/02 11:55:29;;;;;;;8.13;7.43;;;21.10;99.90;;;;;;5047091;28;20511;-72
2021/09/02 11:57:57;;;;;;;12.00;8.37;;;21.10;99.90;;;;;;5054302;28;20190;-75
2021/09/02 12:00:23;;;;;;;9.90;7.50;;;21.10;99.90;;;;;;5053445;28;20453;-74
2021/09/02 12:02:56;;;;;;;8.67;7.20;;;21.10;99.90;;;;;;5055617;28;20417;-73
2021/09/02 12:05:27;;;;;;;8.23;6.97;;;21.20;99.90;;;;;;5057074;28;20766;-73
2021/09/02 12:07:55;;;;;;;8.40;7.50;;;21.30;99.90;;;;;;5057170;28;20449;-74
2021/09/02 12:10:22;;;;;;;9.27;8.33;;;21.30;99.90;;;;;;5056874;28;20437;-73
2021/09/02 12:12:48;;;;;;;8.10;7.40;;;21.30;99.90;;;;;;5055974;28;20432;-74
2021/09/02 12:15:26;;;;;;;8.07;7.20;;;21.30;99.90;;;;;;5056070;28;20954;-74
2021/09/02 12:18:11;;;;;;;10.00;7.20;;;21.40;99.90;;;;;;5038785;28;20765;-75
2021/09/02 12:20:39;;;;;;;7.50;6.80;;;21.60;99.90;;;;;;5038620;28;20520;-74
2021/09/02 12:23:22;;;;;;;8.63;7.10;;;21.60;99.60;;;;;;5056323;28;20409;-74
2021/09/02 12:26:03;;;;;;;9.10;8.20;;;21.80;99.50;;;;;;5056432;28;20493;-72
2021/09/02 12:28:31;;;;;;;7.47;6.77;;;22.00;99.30;;;;;;5017095;28;20473;-71
2021/09/02 12:30:57;;;;;;;8.00;7.17;;;22.10;99.00;;;;;;5032514;28;20819;-72
2021/09/02 12:33:28;;;;;;;7.93;7.07;;;22.00;98.30;;;;;;5037409;28;20456;-74
2021/09/02 12:35:55;;;;;;;8.13;7.30;;;22.20;98.90;;;;;;5034957;28;20273;-73